sensor_id;sensor_type;location;lat;lon;timestamp;temperature;humidity
7002;DHT22;3541;53.230;10.518;2022-08-01T00:02:08;19.10;99.90
7002;DHT22;3541;53.230;10.518;2022-08-01T00:04:35;19.20;99.90
7002;DHT22;3541;53.230;10.518;2022-08-01T00:07:01;19.10;99.90
7002;DHT22;3541;53.230;10.518;2022-08-01T00:09:29;19.20;99.90
7002;DHT22;3541;53.230;10.518;2022-08-01T00:11:57;19.20;99.90
7002;DHT22;3541;53.230;10.518;2022-08-01T00:14:23;19.20;99.90
7002;DHT22;3541;53.230;10.518;2022-08-01T00:16:50;19.20;99.90
7002;DHT22;3541;53.230;10.518;2022-08-01T00:19:16;19.20;99.90
7002;DHT22;3541;53.230;10.518;2022-08-01T00:21:43;19.20;99.90
7002;DHT22;3541;53.230;10.518;2022-08-01T00:24:10;19.30;99.90
7002;DHT22;3541;53.230;10.518;2022-08-01T00:26:36;19.30;99.90
7002;DHT22;3541;53.230;10.518;2022-08-01T00:29:04;19.30;99.90
7002;DHT22;3541;53.230;10.518;2022-08-01T00:31:31;19.20;99.90
7002;DHT22;3541;53.230;10.518;2022-08-01T00:33:57;19.20;99.90
7002;DHT22;3541;53.230;10.518;2022-08-01T00:36:24;19.30;99.90
7002;DHT22;3541;53.230;10.518;2022-08-01T00:38:50;19.30;99.90
7002;DHT22;3541;53.230;10.518;2022-08-01T00:41:17;19.30;99.90
7002;DHT22;3541;53.230;10.518;2022-08-01T00:43:44;19.30;99.90
7002;DHT22;3541;53.230;10.518;2022-08-01T00:46:12;19.30;99.90
7002;DHT22;3541;53.230;10.518;2022-08-01T00:48:38;19.30;99.90
7002;DHT22;3541;53.230;10.518;2022-08-01T00:51:05;19.30;99.90
7002;DHT22;3541;53.230;10.518;2022-08-01T00:53:32;19.20;99.90
7002;DHT22;3541;53.230;10.518;2022-08-01T00:55:59;19.20;99.90
7002;DHT22;3541;53.230;10.518;2022-08-01T00:58:26;19.20;99.90
7002;DHT22;3541;53.230;10.518;2022-08-01T01:00:56;19.20;99.90
7002;DHT22;3541;53.230;10.518;2022-08-01T01:03:24;19.20;99.90
7002;DHT22;3541;53.230;10.518;2022-08-01T01:05:56;19.20;99.90
7002;DHT22;3541;53.230;10.518;2022-08-01T01:08:32;19.10;99.90
7002;DHT22;3541;53.230;10.518;2022-08-01T01:11:04;19.10;99.90
7002;DHT22;3541;53.230;10.518;2022-08-01T01:13:38;19.00;99.90
7002;DHT22;3541;53.230;10.518;2022-08-01T01:16:12;19.10;99.90
7002;DHT22;3541;53.230;10.518;2022-08-01T01:18:45;19.20;99.90
7002;DHT22;3541;53.230;10.518;2022-08-01T01:21:35;19.20;99.90
7002;DHT22;3541;53.230;10.518;2022-08-01T01:24:13;19.20;99.90
7002;DHT22;3541;53.230;10.518;2022-08-01T01:26:49;19.20;99.90
7002;DHT22;3541;53.230;10.518;2022-08-01T01:29:21;19.30;99.90
7002;DHT22;3541;53.230;10.518;2022-08-01T01:31:55;19.30;99.90
7002;DHT22;3541;53.230;10.518;2022-08-01T01:34:23;19.30;99.90
7002;DHT22;3541;53.230;10.518;2022-08-01T01:36:54;19.20;99.90
7002;DHT22;3541;53.230;10.518;2022-08-01T01:39:22;19.30;99.90
7002;DHT22;3541;53.230;10.518;2022-08-01T01:41:51;19.30;99.90
7002;DHT22;3541;53.230;10.518;2022-08-01T01:44:21;19.30;99.90
7002;DHT22;3541;53.230;10.518;2022-08-01T01:46:50;19.30;99.90
7002;DHT22;3541;53.230;10.518;2022-08-01T01:49:19;19.30;99.90
7002;DHT22;3541;53.230;10.518;2022-08-01T01:51:48;19.30;99.90
7002;DHT22;3541;53.230;10.518;2022-08-01T01:54:17;19.40;99.90
7002;DHT22;3541;53.230;10.518;2022-08-01T01:56:45;19.30;99.90
7002;DHT22;3541;53.230;10.518;2022-08-01T01:59:19;19.30;99.90
7002;DHT22;3541;53.230;10.518;2022-08-01T02:01:48;19.30;99.90
7002;DHT22;3541;53.230;10.518;2022-08-01T02:04:16;19.20;99.90
7002;DHT22;3541;53.230;10.518;2022-08-01T02:06:43;19.30;99.90
7002;DHT22;3541;53.230;10.518;2022-08-01T02:09:11;19.30;99.90
7002;DHT22;3541;53.230;10.518;2022-08-01T02:11:40;19.30;99.90
7002;DHT22;3541;53.230;10.518;2022-08-01T02:14:07;19.20;99.90
7002;DHT22;3541;53.230;10.518;2022-08-01T02:16:39;19.30;99.90
7002;DHT22;3541;53.230;10.518;2022-08-01T02:19:07;19.30;99.90
7002;DHT22;3541;53.230;10.518;2022-08-01T02:21:39;19.20;99.90
7002;DHT22;3541;53.230;10.518;2022-08-01T02:24:12;19.30;99.90
7002;DHT22;3541;53.230;10.518;2022-08-01T02:26:42;19.20;99.90
7002;DHT22;3541;53.230;10.518;2022-08-01T02:29:15;19.20;99.90
7002;DHT22;3541;53.230;10.518;2022-08-01T02:31:45;19.20;99.90
7002;DHT22;3541;53.230;10.518;2022-08-01T02:34:17;19.20;99.90
7002;DHT22;3541;53.230;10.518;2022-08-01T02:36:46;19.10;99.90
7002;DHT22;3541;53.230;10.518;2022-08-01T02:39:15;19.00;99.90
7002;DHT22;3541;53.230;10.518;2022-08-01T02:41:50;19.10;99.90
7002;DHT22;3541;53.230;10.518;2022-08-01T02:44:23;19.00;99.90
7002;DHT22;3541;53.230;10.518;2022-08-01T02:46:54;19.10;99.90
7002;DHT22;3541;53.230;10.518;2022-08-01T02:49:23;19.10;99.90
7002;DHT22;3541;53.230;10.518;2022-08-01T02:51:54;19.10;99.90
7002;DHT22;3541;53.230;10.518;2022-08-01T02:54:22;19.10;99.90
7002;DHT22;3541;53.230;10.518;2022-08-01T02:56:50;19.10;99.90
7002;DHT22;3541;53.230;10.518;2022-08-01T02:59:19;19.10;99.90
7002;DHT22;3541;53.230;10.518;2022-08-01T03:01:50;19.10;99.90
7002;DHT22;3541;53.230;10.518;2022-08-01T03:04:18;19.10;99.90
7002;DHT22;3541;53.230;10.518;2022-08-01T03:06:48;19.20;99.90
7002;DHT22;3541;53.230;10.518;2022-08-01T03:09:15;19.10;99.90
7002;DHT22;3541;53.230;10.518;2022-08-01T03:11:44;19.10;99.90
7002;DHT22;3541;53.230;10.518;2022-08-01T03:14:12;19.10;99.90
7002;DHT22;3541;53.230;10.518;2022-08-01T03:16:41;19.10;99.90
7002;DHT22;3541;53.230;10.518;2022-08-01T03:19:10;19.10;99.90
7002;DHT22;3541;53.230;10.518;2022-08-01T03:21:39;19.20;99.90
7002;DHT22;3541;53.230;10.518;2022-08-01T03:24:09;19.00;99.90
7002;DHT22;3541;53.230;10.518;2022-08-01T03:26:36;19.10;99.90
7002;DHT22;3541;53.230;10.518;2022-08-01T03:29:05;19.00;99.90
7002;DHT22;3541;53.230;10.518;2022-08-01T03:31:34;19.00;99.90
7002;DHT22;3541;53.230;10.518;2022-08-01T03:34:01;18.90;99.90
7002;DHT22;3541;53.230;10.518;2022-08-01T03:36:30;19.00;99.90
7002;DHT22;3541;53.230;10.518;2022-08-01T03:39:00;19.00;99.90
7002;DHT22;3541;53.230;10.518;2022-08-01T03:41:33;18.80;99.90
7002;DHT22;3541;53.230;10.518;2022-08-01T03:44:06;18.90;99.90
7002;DHT22;3541;53.230;10.518;2022-08-01T03:46:40;19.00;99.90
7002;DHT22;3541;53.230;10.518;2022-08-01T03:49:11;19.00;99.90
7002;DHT22;3541;53.230;10.518;2022-08-01T03:51:40;19.00;99.90
7002;DHT22;3541;53.230;10.518;2022-08-01T03:54:08;19.00;99.90
7002;DHT22;3541;53.230;10.518;2022-08-01T03:56:38;19.00;99.90
7002;DHT22;3541;53.230;10.518;2022-08-01T03:59:07;18.90;99.90
7002;DHT22;3541;53.230;10.518;2022-08-01T04:01:36;18.80;99.90
7002;DHT22;3541;53.230;10.518;2022-08-01T04:04:03;18.80;99.90
7002;DHT22;3541;53.230;10.518;2022-08-01T04:06:31;18.80;99.90
7002;DHT22;3541;53.230;10.518;2022-08-01T04:08:58;18.80;99.90
7002;DHT22;3541;53.230;10.518;2022-08-01T04:11:26;18.80;99.90
7002;DHT22;3541;53.230;10.518;2022-08-01T04:13:55;18.80;99.90
7002;DHT22;3541;53.230;10.518;2022-08-01T04:16:22;18.90;99.90
7002;DHT22;3541;53.230;10.518;2022-08-01T04:18:49;18.90;99.90
7002;DHT22;3541;53.230;10.518;2022-08-01T04:21:18;19.00;99.90
7002;DHT22;3541;53.230;10.518;2022-08-01T04:23:48;18.90;99.90
7002;DHT22;3541;53.230;10.518;2022-08-01T04:26:17;18.90;99.90
7002;DHT22;3541;53.230;10.518;2022-08-01T04:28:45;18.90;99.90
7002;DHT22;3541;53.230;10.518;2022-08-01T04:31:14;18.90;99.90
7002;DHT22;3541;53.230;10.518;2022-08-01T04:33:45;18.90;99.90
7002;DHT22;3541;53.230;10.518;2022-08-01T04:36:16;18.90;99.90
7002;DHT22;3541;53.230;10.518;2022-08-01T04:38:46;18.90;99.90
7002;DHT22;3541;53.230;10.518;2022-08-01T04:41:16;18.90;99.90
7002;DHT22;3541;53.230;10.518;2022-08-01T04:43:44;18.80;99.90
7002;DHT22;3541;53.230;10.518;2022-08-01T04:46:13;18.90;99.90
7002;DHT22;3541;53.230;10.518;2022-08-01T04:48:40;18.90;99.90
7002;DHT22;3541;53.230;10.518;2022-08-01T04:51:12;18.90;99.90
7002;DHT22;3541;53.230;10.518;2022-08-01T04:53:40;18.90;99.90
7002;DHT22;3541;53.230;10.518;2022-08-01T04:56:07;19.00;99.90
7002;DHT22;3541;53.230;10.518;2022-08-01T04:58:33;18.80;99.90
7002;DHT22;3541;53.230;10.518;2022-08-01T05:01:00;18.80;99.90
7002;DHT22;3541;53.230;10.518;2022-08-01T05:03:28;18.90;99.90
7002;DHT22;3541;53.230;10.518;2022-08-01T05:05:54;19.00;99.90
7002;DHT22;3541;53.230;10.518;2022-08-01T05:08:21;19.00;99.90
7002;DHT22;3541;53.230;10.518;2022-08-01T05:10:47;18.90;99.90
7002;DHT22;3541;53.230;10.518;2022-08-01T05:13:14;19.00;99.90
7002;DHT22;3541;53.230;10.518;2022-08-01T05:15:41;19.00;99.90
7002;DHT22;3541;53.230;10.518;2022-08-01T05:18:07;19.00;99.90
7002;DHT22;3541;53.230;10.518;2022-08-01T05:20:35;19.00;99.90
7002;DHT22;3541;53.230;10.518;2022-08-01T05:23:03;18.90;99.90
7002;DHT22;3541;53.230;10.518;2022-08-01T05:25:29;18.90;99.90
7002;DHT22;3541;53.230;10.518;2022-08-01T05:27:56;19.00;99.90
7002;DHT22;3541;53.230;10.518;2022-08-01T05:30:22;19.00;99.90
7002;DHT22;3541;53.230;10.518;2022-08-01T05:32:49;19.00;99.90
7002;DHT22;3541;53.230;10.518;2022-08-01T05:35:16;19.00;99.90
7002;DHT22;3541;53.230;10.518;2022-08-01T05:37:44;19.10;99.90
7002;DHT22;3541;53.230;10.518;2022-08-01T05:40:11;19.10;99.90
7002;DHT22;3541;53.230;10.518;2022-08-01T05:42:38;19.20;99.90
7002;DHT22;3541;53.230;10.518;2022-08-01T05:45:05;19.20;99.90
7002;DHT22;3541;53.230;10.518;2022-08-01T05:47:32;19.10;99.90
7002;DHT22;3541;53.230;10.518;2022-08-01T05:49:59;19.20;99.90
7002;DHT22;3541;53.230;10.518;2022-08-01T05:52:25;19.20;99.90
7002;DHT22;3541;53.230;10.518;2022-08-01T05:54:53;19.10;99.90
7002;DHT22;3541;53.230;10.518;2022-08-01T05:57:20;19.00;99.90
7002;DHT22;3541;53.230;10.518;2022-08-01T05:59:46;19.00;99.90
7002;DHT22;3541;53.230;10.518;2022-08-01T06:02:13;18.90;99.90
7002;DHT22;3541;53.230;10.518;2022-08-01T06:04:39;19.00;99.90
7002;DHT22;3541;53.230;10.518;2022-08-01T06:07:06;19.00;99.90
7002;DHT22;3541;53.230;10.518;2022-08-01T06:09:33;19.00;99.90
7002;DHT22;3541;53.230;10.518;2022-08-01T06:12:00;18.90;99.90
7002;DHT22;3541;53.230;10.518;2022-08-01T06:14:28;18.90;99.90
7002;DHT22;3541;53.230;10.518;2022-08-01T06:16:55;19.00;99.90
7002;DHT22;3541;53.230;10.518;2022-08-01T06:19:21;19.00;99.90
7002;DHT22;3541;53.230;10.518;2022-08-01T06:21:48;19.00;99.90
7002;DHT22;3541;53.230;10.518;2022-08-01T06:24:14;19.10;99.90
7002;DHT22;3541;53.230;10.518;2022-08-01T06:26:41;19.00;99.90
7002;DHT22;3541;53.230;10.518;2022-08-01T06:29:09;19.10;99.90
7002;DHT22;3541;53.230;10.518;2022-08-01T06:31:36;19.00;99.90
7002;DHT22;3541;53.230;10.518;2022-08-01T06:34:02;18.90;99.90
7002;DHT22;3541;53.230;10.518;2022-08-01T06:36:29;19.00;99.90
7002;DHT22;3541;53.230;10.518;2022-08-01T06:38:55;19.00;99.90
7002;DHT22;3541;53.230;10.518;2022-08-01T06:41:22;19.10;99.90
7002;DHT22;3541;53.230;10.518;2022-08-01T06:43:48;19.00;99.90
7002;DHT22;3541;53.230;10.518;2022-08-01T06:46:16;19.00;99.90
7002;DHT22;3541;53.230;10.518;2022-08-01T06:48:43;19.10;99.90
7002;DHT22;3541;53.230;10.518;2022-08-01T06:51:09;19.10;99.90
7002;DHT22;3541;53.230;10.518;2022-08-01T06:53:39;19.00;99.90
7002;DHT22;3541;53.230;10.518;2022-08-01T06:56:06;19.00;99.90
7002;DHT22;3541;53.230;10.518;2022-08-01T06:58:33;19.00;99.90
7002;DHT22;3541;53.230;10.518;2022-08-01T07:01:01;18.90;99.90
7002;DHT22;3541;53.230;10.518;2022-08-01T07:03:28;19.00;99.90
7002;DHT22;3541;53.230;10.518;2022-08-01T07:05:55;19.00;99.90
7002;DHT22;3541;53.230;10.518;2022-08-01T07:08:22;19.00;99.90
7002;DHT22;3541;53.230;10.518;2022-08-01T07:10:48;19.00;99.90
7002;DHT22;3541;53.230;10.518;2022-08-01T07:13:15;19.10;99.90
7002;DHT22;3541;53.230;10.518;2022-08-01T07:15:45;19.10;99.90
7002;DHT22;3541;53.230;10.518;2022-08-01T07:18:12;19.20;99.90
7002;DHT22;3541;53.230;10.518;2022-08-01T07:20:40;19.10;99.90
7002;DHT22;3541;53.230;10.518;2022-08-01T07:23:07;19.10;99.90
7002;DHT22;3541;53.230;10.518;2022-08-01T07:25:33;19.10;99.90
7002;DHT22;3541;53.230;10.518;2022-08-01T07:28:00;19.10;99.90
7002;DHT22;3541;53.230;10.518;2022-08-01T07:30:26;19.20;99.90
7002;DHT22;3541;53.230;10.518;2022-08-01T07:32:53;19.00;99.90
7002;DHT22;3541;53.230;10.518;2022-08-01T07:35:20;19.00;99.90
7002;DHT22;3541;53.230;10.518;2022-08-01T07:37:48;19.00;99.90
7002;DHT22;3541;53.230;10.518;2022-08-01T07:40:15;19.00;99.90
7002;DHT22;3541;53.230;10.518;2022-08-01T07:42:43;19.00;99.90
7002;DHT22;3541;53.230;10.518;2022-08-01T07:45:10;19.00;99.90
7002;DHT22;3541;53.230;10.518;2022-08-01T07:47:37;19.00;99.90
7002;DHT22;3541;53.230;10.518;2022-08-01T07:50:05;19.00;99.90
7002;DHT22;3541;53.230;10.518;2022-08-01T07:52:32;19.10;99.90
7002;DHT22;3541;53.230;10.518;2022-08-01T07:55:00;19.20;99.90
7002;DHT22;3541;53.230;10.518;2022-08-01T07:57:27;19.30;99.90
7002;DHT22;3541;53.230;10.518;2022-08-01T07:59:54;19.30;99.90
7002;DHT22;3541;53.230;10.518;2022-08-01T08:02:20;19.40;99.90
7002;DHT22;3541;53.230;10.518;2022-08-01T08:04:47;19.40;99.90
7002;DHT22;3541;53.230;10.518;2022-08-01T08:07:14;19.40;99.90
7002;DHT22;3541;53.230;10.518;2022-08-01T08:09:40;19.40;99.90
7002;DHT22;3541;53.230;10.518;2022-08-01T08:12:08;19.40;99.90
7002;DHT22;3541;53.230;10.518;2022-08-01T08:14:35;19.30;99.90
7002;DHT22;3541;53.230;10.518;2022-08-01T08:17:02;19.30;99.90
7002;DHT22;3541;53.230;10.518;2022-08-01T08:19:28;19.40;99.90
7002;DHT22;3541;53.230;10.518;2022-08-01T08:21:57;19.40;99.90
7002;DHT22;3541;53.230;10.518;2022-08-01T08:24:24;19.40;99.90
7002;DHT22;3541;53.230;10.518;2022-08-01T08:26:54;19.40;99.90
7002;DHT22;3541;53.230;10.518;2022-08-01T08:29:22;19.40;99.90
7002;DHT22;3541;53.230;10.518;2022-08-01T08:31:49;19.30;99.90
7002;DHT22;3541;53.230;10.518;2022-08-01T08:34:16;19.30;99.90
7002;DHT22;3541;53.230;10.518;2022-08-01T08:36:42;19.30;99.90
7002;DHT22;3541;53.230;10.518;2022-08-01T08:39:09;19.30;99.90
7002;DHT22;3541;53.230;10.518;2022-08-01T08:41:36;19.40;99.90
7002;DHT22;3541;53.230;10.518;2022-08-01T08:44:03;19.50;99.90
7002;DHT22;3541;53.230;10.518;2022-08-01T08:46:32;19.70;99.90
7002;DHT22;3541;53.230;10.518;2022-08-01T08:48:59;19.70;99.90
7002;DHT22;3541;53.230;10.518;2022-08-01T08:51:27;19.70;99.90
7002;DHT22;3541;53.230;10.518;2022-08-01T08:53:54;19.80;99.90
7002;DHT22;3541;53.230;10.518;2022-08-01T08:56:23;19.80;99.90
7002;DHT22;3541;53.230;10.518;2022-08-01T08:58:51;19.60;99.90
7002;DHT22;3541;53.230;10.518;2022-08-01T09:01:18;19.60;99.90
7002;DHT22;3541;53.230;10.518;2022-08-01T09:03:47;19.80;99.90
7002;DHT22;3541;53.230;10.518;2022-08-01T09:06:14;19.90;99.90
7002;DHT22;3541;53.230;10.518;2022-08-01T09:08:40;19.90;99.90
7002;DHT22;3541;53.230;10.518;2022-08-01T09:11:07;19.90;99.90
7002;DHT22;3541;53.230;10.518;2022-08-01T09:13:33;19.80;99.90
7002;DHT22;3541;53.230;10.518;2022-08-01T09:16:00;19.60;99.90
7002;DHT22;3541;53.230;10.518;2022-08-01T09:18:29;19.60;99.90
7002;DHT22;3541;53.230;10.518;2022-08-01T09:21:19;19.50;99.90
7002;DHT22;3541;53.230;10.518;2022-08-01T09:23:49;19.50;99.90
7002;DHT22;3541;53.230;10.518;2022-08-01T09:26:18;19.60;99.90
7002;DHT22;3541;53.230;10.518;2022-08-01T09:28:45;19.60;99.90
7002;DHT22;3541;53.230;10.518;2022-08-01T09:31:14;19.60;99.90
7002;DHT22;3541;53.230;10.518;2022-08-01T09:33:53;19.70;99.90
7002;DHT22;3541;53.230;10.518;2022-08-01T09:36:24;19.80;99.90
7002;DHT22;3541;53.230;10.518;2022-08-01T09:38:52;19.80;99.90
7002;DHT22;3541;53.230;10.518;2022-08-01T09:41:29;19.80;99.90
7002;DHT22;3541;53.230;10.518;2022-08-01T09:43:56;19.80;99.90
7002;DHT22;3541;53.230;10.518;2022-08-01T09:46:23;19.90;99.90
7002;DHT22;3541;53.230;10.518;2022-08-01T09:48:57;19.80;99.90
7002;DHT22;3541;53.230;10.518;2022-08-01T09:51:30;19.80;99.90
7002;DHT22;3541;53.230;10.518;2022-08-01T09:53:58;19.80;99.90
7002;DHT22;3541;53.230;10.518;2022-08-01T09:56:25;19.80;99.90
7002;DHT22;3541;53.230;10.518;2022-08-01T09:58:53;19.80;99.90
7002;DHT22;3541;53.230;10.518;2022-08-01T10:01:21;19.80;99.90
7002;DHT22;3541;53.230;10.518;2022-08-01T10:04:04;19.90;99.90
7002;DHT22;3541;53.230;10.518;2022-08-01T10:06:32;19.80;99.90
7002;DHT22;3541;53.230;10.518;2022-08-01T10:08:59;19.90;99.90
7002;DHT22;3541;53.230;10.518;2022-08-01T10:11:26;19.90;99.90
7002;DHT22;3541;53.230;10.518;2022-08-01T10:13:55;19.80;99.90
7002;DHT22;3541;53.230;10.518;2022-08-01T10:16:23;19.80;99.90
7002;DHT22;3541;53.230;10.518;2022-08-01T10:18:51;19.80;99.90
7002;DHT22;3541;53.230;10.518;2022-08-01T10:21:18;19.90;99.90
7002;DHT22;3541;53.230;10.518;2022-08-01T10:23:47;19.90;99.90
7002;DHT22;3541;53.230;10.518;2022-08-01T10:26:14;20.00;99.90
7002;DHT22;3541;53.230;10.518;2022-08-01T10:28:43;20.20;99.90
7002;DHT22;3541;53.230;10.518;2022-08-01T10:31:11;20.40;99.90
7002;DHT22;3541;53.230;10.518;2022-08-01T10:33:38;20.60;99.90
7002;DHT22;3541;53.230;10.518;2022-08-01T10:36:07;20.80;99.90
7002;DHT22;3541;53.230;10.518;2022-08-01T10:38:34;20.80;99.90
7002;DHT22;3541;53.230;10.518;2022-08-01T10:41:03;20.80;99.90
7002;DHT22;3541;53.230;10.518;2022-08-01T10:43:30;20.90;99.90
7002;DHT22;3541;53.230;10.518;2022-08-01T10:45:57;21.00;99.90
7002;DHT22;3541;53.230;10.518;2022-08-01T10:48:28;21.00;99.90
7002;DHT22;3541;53.230;10.518;2022-08-01T10:50:59;20.90;99.90
7002;DHT22;3541;53.230;10.518;2022-08-01T10:53:27;20.90;99.90
7002;DHT22;3541;53.230;10.518;2022-08-01T10:55:59;21.10;99.90
7002;DHT22;3541;53.230;10.518;2022-08-01T10:58:29;21.40;99.90
7002;DHT22;3541;53.230;10.518;2022-08-01T11:01:21;21.50;99.90
7002;DHT22;3541;53.230;10.518;2022-08-01T11:03:58;21.70;99.90
7002;DHT22;3541;53.230;10.518;2022-08-01T11:06:26;21.90;99.90
7002;DHT22;3541;53.230;10.518;2022-08-01T11:08:54;21.60;99.90
7002;DHT22;3541;53.230;10.518;2022-08-01T11:11:22;21.70;99.90
7002;DHT22;3541;53.230;10.518;2022-08-01T11:14:03;21.80;99.90
7002;DHT22;3541;53.230;10.518;2022-08-01T11:16:36;21.70;99.90
7002;DHT22;3541;53.230;10.518;2022-08-01T11:19:03;21.80;99.90
7002;DHT22;3541;53.230;10.518;2022-08-01T11:21:58;22.00;99.90
7002;DHT22;3541;53.230;10.518;2022-08-01T11:24:55;22.00;99.90
7002;DHT22;3541;53.230;10.518;2022-08-01T11:27:27;21.70;99.90
7002;DHT22;3541;53.230;10.518;2022-08-01T11:30:23;21.50;99.90
7002;DHT22;3541;53.230;10.518;2022-08-01T11:32:53;21.70;99.90
7002;DHT22;3541;53.230;10.518;2022-08-01T11:35:20;21.90;99.90
7002;DHT22;3541;53.230;10.518;2022-08-01T11:37:49;21.90;99.90
7002;DHT22;3541;53.230;10.518;2022-08-01T11:40:18;21.70;99.90
7002;DHT22;3541;53.230;10.518;2022-08-01T11:42:45;21.60;99.90
7002;DHT22;3541;53.230;10.518;2022-08-01T11:45:13;21.50;99.90
7002;DHT22;3541;53.230;10.518;2022-08-01T11:47:49;21.60;99.90
7002;DHT22;3541;53.230;10.518;2022-08-01T11:50:30;22.00;99.90
7002;DHT22;3541;53.230;10.518;2022-08-01T11:52:57;22.40;99.90
7002;DHT22;3541;53.230;10.518;2022-08-01T11:55:25;22.50;99.90
7002;DHT22;3541;53.230;10.518;2022-08-01T11:57:59;22.60;99.90
7002;DHT22;3541;53.230;10.518;2022-08-01T12:00:26;22.60;99.90
7002;DHT22;3541;53.230;10.518;2022-08-01T12:02:59;22.60;99.90
7002;DHT22;3541;53.230;10.518;2022-08-01T12:05:27;22.90;99.90
7002;DHT22;3541;53.230;10.518;2022-08-01T12:07:55;23.10;99.90
7002;DHT22;3541;53.230;10.518;2022-08-01T12:10:23;22.90;99.90
7002;DHT22;3541;53.230;10.518;2022-08-01T12:12:51;22.80;99.90
7002;DHT22;3541;53.230;10.518;2022-08-01T12:15:18;22.90;99.90
7002;DHT22;3541;53.230;10.518;2022-08-01T12:17:48;22.90;99.90
7002;DHT22;3541;53.230;10.518;2022-08-01T12:20:20;23.10;99.90
7002;DHT22;3541;53.230;10.518;2022-08-01T12:22:47;23.40;99.90
7002;DHT22;3541;53.230;10.518;2022-08-01T12:25:18;23.40;99.90
7002;DHT22;3541;53.230;10.518;2022-08-01T12:27:47;23.30;99.90
7002;DHT22;3541;53.230;10.518;2022-08-01T12:30:15;23.40;99.90
7002;DHT22;3541;53.230;10.518;2022-08-01T12:32:44;23.30;99.90
7002;DHT22;3541;53.230;10.518;2022-08-01T12:35:12;23.40;99.90
7002;DHT22;3541;53.230;10.518;2022-08-01T12:37:42;23.50;99.90
7002;DHT22;3541;53.230;10.518;2022-08-01T12:40:12;23.50;99.90
7002;DHT22;3541;53.230;10.518;2022-08-01T12:42:40;23.60;99.90
7002;DHT22;3541;53.230;10.518;2022-08-01T12:45:08;23.70;99.90
7002;DHT22;3541;53.230;10.518;2022-08-01T12:47:36;23.80;99.90
7002;DHT22;3541;53.230;10.518;2022-08-01T12:50:05;23.80;99.90
7002;DHT22;3541;53.230;10.518;2022-08-01T12:52:32;23.80;99.90
7002;DHT22;3541;53.230;10.518;2022-08-01T12:55:09;23.90;99.90
7002;DHT22;3541;53.230;10.518;2022-08-01T12:57:38;24.00;99.90
7002;DHT22;3541;53.230;10.518;2022-08-01T13:00:11;24.10;99.90
7002;DHT22;3541;53.230;10.518;2022-08-01T13:02:38;24.30;99.90
7002;DHT22;3541;53.230;10.518;2022-08-01T13:05:06;24.30;99.90
7002;DHT22;3541;53.230;10.518;2022-08-01T13:07:38;24.00;99.90
7002;DHT22;3541;53.230;10.518;2022-08-01T13:10:07;23.90;99.90
7002;DHT22;3541;53.230;10.518;2022-08-01T13:12:35;24.10;99.90
7002;DHT22;3541;53.230;10.518;2022-08-01T13:15:20;24.20;99.90
7002;DHT22;3541;53.230;10.518;2022-08-01T13:17:47;24.20;99.90
7002;DHT22;3541;53.230;10.518;2022-08-01T13:20:30;24.40;99.90
7002;DHT22;3541;53.230;10.518;2022-08-01T13:23:14;24.30;99.90
7002;DHT22;3541;53.230;10.518;2022-08-01T13:25:51;24.20;99.90
7002;DHT22;3541;53.230;10.518;2022-08-01T13:28:20;23.90;99.90
7002;DHT22;3541;53.230;10.518;2022-08-01T13:30:55;23.70;99.90
7002;DHT22;3541;53.230;10.518;2022-08-01T13:33:22;23.60;99.90
7002;DHT22;3541;53.230;10.518;2022-08-01T13:35:50;23.50;99.90
7002;DHT22;3541;53.230;10.518;2022-08-01T13:38:17;23.50;99.90
7002;DHT22;3541;53.230;10.518;2022-08-01T13:40:43;23.50;99.90
7002;DHT22;3541;53.230;10.518;2022-08-01T13:43:11;23.30;99.90
7002;DHT22;3541;53.230;10.518;2022-08-01T13:45:38;23.60;99.90
7002;DHT22;3541;53.230;10.518;2022-08-01T13:48:06;23.70;99.90
7002;DHT22;3541;53.230;10.518;2022-08-01T13:50:32;23.70;99.90
7002;DHT22;3541;53.230;10.518;2022-08-01T13:52:59;23.90;99.90
7002;DHT22;3541;53.230;10.518;2022-08-01T13:55:26;24.00;99.90
7002;DHT22;3541;53.230;10.518;2022-08-01T13:57:52;24.00;99.90
7002;DHT22;3541;53.230;10.518;2022-08-01T14:00:20;23.90;99.90
7002;DHT22;3541;53.230;10.518;2022-08-01T14:02:47;24.10;99.90
7002;DHT22;3541;53.230;10.518;2022-08-01T14:05:13;23.90;99.90
7002;DHT22;3541;53.230;10.518;2022-08-01T14:07:40;23.80;99.90
7002;DHT22;3541;53.230;10.518;2022-08-01T14:10:07;23.80;99.90
7002;DHT22;3541;53.230;10.518;2022-08-01T14:12:34;24.10;99.90
7002;DHT22;3541;53.230;10.518;2022-08-01T14:15:01;24.20;99.90
7002;DHT22;3541;53.230;10.518;2022-08-01T14:17:29;24.20;99.90
7002;DHT22;3541;53.230;10.518;2022-08-01T14:19:55;24.20;99.90
7002;DHT22;3541;53.230;10.518;2022-08-01T14:22:24;24.20;99.90
7002;DHT22;3541;53.230;10.518;2022-08-01T14:24:51;24.20;99.90
7002;DHT22;3541;53.230;10.518;2022-08-01T14:27:17;24.20;99.90
7002;DHT22;3541;53.230;10.518;2022-08-01T14:29:44;24.30;99.90
7002;DHT22;3541;53.230;10.518;2022-08-01T14:32:12;24.20;99.90
7002;DHT22;3541;53.230;10.518;2022-08-01T14:34:40;24.30;99.90
7002;DHT22;3541;53.230;10.518;2022-08-01T14:37:06;24.50;99.90
7002;DHT22;3541;53.230;10.518;2022-08-01T14:39:33;24.50;99.90
7002;DHT22;3541;53.230;10.518;2022-08-01T14:42:00;24.50;99.90
7002;DHT22;3541;53.230;10.518;2022-08-01T14:44:26;24.20;99.90
7002;DHT22;3541;53.230;10.518;2022-08-01T14:46:53;24.10;99.90
7002;DHT22;3541;53.230;10.518;2022-08-01T14:49:19;23.90;99.90
7002;DHT22;3541;53.230;10.518;2022-08-01T14:51:47;23.80;99.90
7002;DHT22;3541;53.230;10.518;2022-08-01T14:54:14;23.90;99.90
7002;DHT22;3541;53.230;10.518;2022-08-01T14:56:40;24.10;99.90
7002;DHT22;3541;53.230;10.518;2022-08-01T14:59:07;24.20;99.90
7002;DHT22;3541;53.230;10.518;2022-08-01T15:01:33;24.10;99.90
7002;DHT22;3541;53.230;10.518;2022-08-01T15:04:00;24.00;99.90
7002;DHT22;3541;53.230;10.518;2022-08-01T15:06:27;23.90;99.90
7002;DHT22;3541;53.230;10.518;2022-08-01T15:08:55;23.70;99.90
7002;DHT22;3541;53.230;10.518;2022-08-01T15:11:21;23.70;99.90
7002;DHT22;3541;53.230;10.518;2022-08-01T15:13:48;23.70;99.90
7002;DHT22;3541;53.230;10.518;2022-08-01T15:16:35;23.60;99.90
7002;DHT22;3541;53.230;10.518;2022-08-01T15:19:02;23.40;99.90
7002;DHT22;3541;53.230;10.518;2022-08-01T15:21:28;23.50;99.90
7002;DHT22;3541;53.230;10.518;2022-08-01T15:23:56;23.50;99.90
7002;DHT22;3541;53.230;10.518;2022-08-01T15:26:22;23.50;99.90
7002;DHT22;3541;53.230;10.518;2022-08-01T15:28:49;23.50;99.90
7002;DHT22;3541;53.230;10.518;2022-08-01T15:31:16;23.30;99.90
7002;DHT22;3541;53.230;10.518;2022-08-01T15:33:42;23.30;99.90
7002;DHT22;3541;53.230;10.518;2022-08-01T15:36:09;23.40;99.90
7002;DHT22;3541;53.230;10.518;2022-08-01T15:38:35;23.60;99.90
7002;DHT22;3541;53.230;10.518;2022-08-01T15:41:03;23.70;99.90
7002;DHT22;3541;53.230;10.518;2022-08-01T15:43:30;23.60;99.90
7002;DHT22;3541;53.230;10.518;2022-08-01T15:45:57;23.70;99.90
7002;DHT22;3541;53.230;10.518;2022-08-01T15:48:23;23.80;99.90
7002;DHT22;3541;53.230;10.518;2022-08-01T15:50:50;23.80;99.90
7002;DHT22;3541;53.230;10.518;2022-08-01T15:53:16;24.00;99.90
7002;DHT22;3541;53.230;10.518;2022-08-01T15:55:43;24.10;99.90